createdAt,value
2024-01-09T00:02:09.195Z,101401.97
2024-01-09T00:04:37.521Z,101417.28
2024-01-09T00:07:05.939Z,101417.44
2024-01-09T00:09:36.467Z,101413.88
2024-01-09T00:12:04.891Z,101422.47
2024-01-09T00:14:36.207Z,101405.50
2024-01-09T00:17:04.164Z,101418.13
2024-01-09T00:19:34.634Z,101411.34
2024-01-09T00:22:04.942Z,101413.09
2024-01-09T00:24:33.186Z,101412.00
2024-01-09T00:27:01.123Z,101410.44
2024-01-09T00:29:29.588Z,101415.59
2024-01-09T00:32:01.085Z,101404.72
2024-01-09T00:34:29.330Z,101405.41
2024-01-09T00:36:57.130Z,101406.22
2024-01-09T00:39:26.129Z,101401.13
2024-01-09T00:41:54.206Z,101405.38
2024-01-09T00:44:22.472Z,101399.38
2024-01-09T00:46:50.586Z,101405.31
2024-01-09T00:49:19.894Z,101400.19
2024-01-09T00:51:48.328Z,101404.50
2024-01-09T00:54:16.209Z,101400.28
2024-01-09T00:56:44.271Z,101401.91
2024-01-09T00:59:12.558Z,101402.78
2024-01-09T01:01:43.407Z,101402.06
2024-01-09T01:04:11.497Z,101395.25
2024-01-09T01:06:47.718Z,101397.06
2024-01-09T01:09:15.672Z,101395.25
2024-01-09T01:11:43.508Z,101403.78
2024-01-09T01:14:11.687Z,101406.97
2024-01-09T01:16:39.941Z,101415.28
2024-01-09T01:19:08.036Z,101414.41
2024-01-09T01:21:35.954Z,101418.53
2024-01-09T01:24:05.922Z,101419.41
2024-01-09T01:26:34.410Z,101421.00
2024-01-09T01:29:02.818Z,101426.19
2024-01-09T01:31:31.245Z,101419.47
2024-01-09T01:33:59.715Z,101423.59
2024-01-09T01:36:28.573Z,101418.66
2024-01-09T01:38:56.514Z,101416.75
2024-01-09T01:41:26.518Z,101417.59
2024-01-09T01:43:54.678Z,101420.13
2024-01-09T01:46:23.214Z,101421.00
2024-01-09T01:48:53.979Z,101417.59
2024-01-09T01:51:22.161Z,101421.06
2024-01-09T01:53:50.433Z,101413.47
2024-01-09T01:56:18.765Z,101417.69
2024-01-09T01:58:48.330Z,101414.28
2024-01-09T02:01:16.637Z,101427.69
2024-01-09T02:03:45.118Z,101414.19
2024-01-09T02:06:15.514Z,101406.47
2024-01-09T02:08:46.068Z,101407.38
2024-01-09T02:11:15.210Z,101409.06
2024-01-09T02:13:43.638Z,101398.84
2024-01-09T02:16:28.324Z,101407.28
2024-01-09T02:18:58.195Z,101400.63
2024-01-09T02:21:29.889Z,101401.38
2024-01-09T02:23:58.108Z,101408.91
2024-01-09T02:26:47.504Z,101403.78
2024-01-09T02:29:31.877Z,101409.84
2024-01-09T02:32:03.930Z,101416.53
2024-01-09T02:34:34.605Z,101413.09
2024-01-09T02:37:03.169Z,101406.25
2024-01-09T02:39:31.845Z,101408.88
2024-01-09T02:41:59.899Z,101409.69
2024-01-09T02:44:28.126Z,101409.56
2024-01-09T02:46:56.512Z,101412.06
2024-01-09T02:49:25.903Z,101408.66
2024-01-09T02:51:54.432Z,101407.81
2024-01-09T02:54:22.413Z,101407.13
2024-01-09T02:56:51.436Z,101411.88
2024-01-09T02:59:19.801Z,101402.56
2024-01-09T03:01:47.717Z,101397.69
2024-01-09T03:04:15.861Z,101399.38
2024-01-09T03:06:45.661Z,101405.22
2024-01-09T03:09:17.414Z,101392.38
2024-01-09T03:11:45.894Z,101396.63
2024-01-09T03:14:18.259Z,101391.53
2024-01-09T03:16:49.390Z,101393.16
2024-01-09T03:19:18.229Z,101389.03
2024-01-09T03:21:48.746Z,101386.47
2024-01-09T03:24:17.016Z,101381.34
2024-01-09T03:26:46.012Z,101379.59
2024-01-09T03:29:14.685Z,101383.09
2024-01-09T03:31:42.840Z,101381.41
2024-01-09T03:34:11.111Z,101386.47
2024-01-09T03:36:41.081Z,101370.38
2024-01-09T03:39:12.818Z,101375.28
2024-01-09T03:41:41.334Z,101377.97
2024-01-09T03:44:10.111Z,101380.34
2024-01-09T03:46:38.752Z,101381.31
2024-01-09T03:49:08.069Z,101382.16
2024-01-09T03:51:36.408Z,101381.31
2024-01-09T03:54:05.106Z,101376.28
2024-01-09T03:56:34.999Z,101385.59
2024-01-09T03:59:03.233Z,101373.03
2024-01-09T04:01:31.105Z,101355.16
2024-01-09T04:04:00.616Z,101352.59
2024-01-09T04:06:29.041Z,101350.91
2024-01-09T04:08:57.219Z,101355.13
2024-01-09T04:11:25.432Z,101366.91
2024-01-09T04:13:55.479Z,101361.00
2024-01-09T04:16:23.782Z,101370.22
2024-01-09T04:18:51.946Z,101369.38
2024-01-09T04:21:19.935Z,101359.09
2024-01-09T04:23:48.378Z,101371.94
2024-01-09T04:26:16.933Z,101369.44
2024-01-09T04:28:45.031Z,101372.59
2024-01-09T04:31:20.147Z,101383.78
2024-01-09T04:33:48.360Z,101366.69
2024-01-09T04:36:18.373Z,101375.94
2024-01-09T04:38:48.529Z,101359.88
2024-01-09T04:41:18.036Z,101369.22
2024-01-09T04:43:47.553Z,101376.72
2024-01-09T04:46:16.963Z,101369.03
2024-01-09T04:48:46.412Z,101370.78
2024-01-09T04:51:14.944Z,101366.59
2024-01-09T04:53:43.133Z,101375.84
2024-01-09T04:56:11.226Z,101376.53
2024-01-09T04:58:39.266Z,101368.97
2024-01-09T05:01:21.194Z,101376.69
2024-01-09T05:03:55.530Z,101380.03
2024-01-09T05:06:24.120Z,101374.91
2024-01-09T05:08:52.576Z,101376.63
2024-01-09T05:11:20.894Z,101376.50
2024-01-09T05:13:51.912Z,101368.84
2024-01-09T05:16:19.744Z,101359.59
2024-01-09T05:18:48.156Z,101361.50
2024-01-09T05:21:18.113Z,101369.94
2024-01-09T05:23:46.771Z,101365.34
2024-01-09T05:26:14.908Z,101371.34
2024-01-09T05:28:43.139Z,101363.84
2024-01-09T05:31:11.466Z,101368.03
2024-01-09T05:33:40.227Z,101373.19
2024-01-09T05:36:09.486Z,101366.38
2024-01-09T05:38:39.185Z,101373.97
2024-01-09T05:41:06.453Z,101367.13
2024-01-09T05:43:34.939Z,101369.63
2024-01-09T05:46:03.515Z,101370.72
2024-01-09T05:48:34.846Z,101363.88
2024-01-09T05:51:05.123Z,101365.53
2024-01-09T05:53:33.605Z,101368.91
2024-01-09T05:56:02.977Z,101365.28
2024-01-09T05:58:30.967Z,101373.56
2024-01-09T06:00:59.134Z,101368.47
2024-01-09T06:03:28.017Z,101375.09
2024-01-09T06:05:57.403Z,101371.84
2024-01-09T06:08:27.125Z,101376.91
2024-01-09T06:10:56.362Z,101380.25
2024-01-09T06:13:26.377Z,101372.78
2024-01-09T06:15:55.985Z,101375.03
2024-01-09T06:18:24.445Z,101374.28
2024-01-09T06:20:52.654Z,101377.03
2024-01-09T06:23:20.815Z,101373.56
2024-01-09T06:25:48.797Z,101369.31
2024-01-09T06:28:17.100Z,101381.25
2024-01-09T06:30:47.086Z,101370.31
2024-01-09T06:33:15.906Z,101365.38
2024-01-09T06:35:49.101Z,101367.97
2024-01-09T06:38:19.399Z,101367.03
2024-01-09T06:40:47.661Z,101371.34
2024-01-09T06:43:16.040Z,101373.09
2024-01-09T06:45:45.054Z,101385.53
2024-01-09T06:48:14.656Z,101384.72
2024-01-09T06:50:42.898Z,101392.34
2024-01-09T06:53:10.989Z,101397.31
2024-01-09T06:55:39.324Z,101388.88
2024-01-09T06:58:07.384Z,101398.81
2024-01-09T07:00:36.107Z,101395.56
2024-01-09T07:03:04.927Z,101393.03
2024-01-09T07:05:34.835Z,101401.28
2024-01-09T07:08:02.868Z,101400.69
2024-01-09T07:10:31.027Z,101412.53
2024-01-09T07:12:59.208Z,101408.25
2024-01-09T07:15:27.582Z,101410.00
2024-01-09T07:18:01.826Z,101402.53
2024-01-09T07:20:30.297Z,101412.03
2024-01-09T07:23:09.544Z,101411.13
2024-01-09T07:25:45.127Z,101405.97
2024-01-09T07:28:13.200Z,101403.47
2024-01-09T07:30:41.410Z,101411.03
2024-01-09T07:33:09.764Z,101410.19
2024-01-09T07:35:39.308Z,101411.34
2024-01-09T07:38:09.404Z,101412.22
2024-01-09T07:40:38.241Z,101413.38
2024-01-09T07:43:06.147Z,101420.72
2024-01-09T07:45:34.369Z,101421.44
2024-01-09T07:48:04.619Z,101420.66
2024-01-09T07:50:33.072Z,101424.25
2024-01-09T07:53:02.886Z,101421.81
2024-01-09T07:55:34.450Z,101416.13
2024-01-09T07:58:03.435Z,101417.00
2024-01-09T08:00:34.289Z,101415.38
2024-01-09T08:03:05.750Z,101414.53
2024-01-09T08:05:34.350Z,101418.06
2024-01-09T08:08:03.562Z,101418.94
2024-01-09T08:10:33.177Z,101416.72
2024-01-09T08:13:01.822Z,101406.63
2024-01-09T08:15:30.679Z,101415.84
2024-01-09T08:18:00.433Z,101416.81
2024-01-09T08:20:30.328Z,101411.09
2024-01-09T08:22:59.462Z,101418.22
2024-01-09T08:25:28.708Z,101418.34
2024-01-09T08:28:10.207Z,101412.63
2024-01-09T08:30:41.270Z,101422.59
2024-01-09T08:33:10.363Z,101418.53
2024-01-09T08:35:38.964Z,101443.72
2024-01-09T08:38:07.214Z,101423.59
2024-01-09T08:40:36.457Z,101421.22
2024-01-09T08:43:07.015Z,101419.66
2024-01-09T08:45:35.440Z,101420.72
2024-01-09T08:48:04.204Z,101415.81
2024-01-09T08:50:32.491Z,101415.91
2024-01-09T08:53:00.950Z,101419.78
2024-01-09T08:55:36.736Z,101424.34
2024-01-09T08:58:06.666Z,101417.63
2024-01-09T09:00:35.125Z,101437.28
2024-01-09T09:03:04.450Z,101417.69
2024-01-09T09:05:35.010Z,101422.03
2024-01-09T09:08:05.883Z,101421.84
2024-01-09T09:10:34.169Z,101434.34
2024-01-09T09:13:02.725Z,101418.75
2024-01-09T09:15:32.818Z,101422.09
2024-01-09T09:18:01.358Z,101418.69
2024-01-09T09:20:30.137Z,101418.94
2024-01-09T09:23:00.018Z,101422.91
2024-01-09T09:25:29.151Z,101411.97
2024-01-09T09:27:57.747Z,101413.59
2024-01-09T09:30:26.933Z,101407.28
2024-01-09T09:32:58.304Z,101399.81
2024-01-09T09:35:26.512Z,101409.97
2024-01-09T09:37:54.463Z,101409.19
2024-01-09T09:40:23.343Z,101416.44
2024-01-09T09:42:57.250Z,101420.50
2024-01-09T09:45:27.202Z,101431.88
2024-01-09T09:47:57.461Z,101419.19
2024-01-09T09:50:27.640Z,101416.88
2024-01-09T09:52:58.418Z,101418.00
2024-01-09T09:55:26.751Z,101416.47
2024-01-09T09:57:55.033Z,101408.69
2024-01-09T10:00:23.558Z,101405.16
2024-01-09T10:02:52.204Z,101397.47
2024-01-09T10:05:22.257Z,101393.41
2024-01-09T10:07:56.517Z,101395.97
2024-01-09T10:10:25.101Z,101400.13
2024-01-09T10:12:58.546Z,101390.94
2024-01-09T10:15:26.980Z,101399.28
2024-01-09T10:17:55.459Z,101385.03
2024-01-09T10:20:26.533Z,101391.78
2024-01-09T10:22:55.661Z,101393.56
2024-01-09T10:25:24.463Z,101391.88
2024-01-09T10:27:52.847Z,101380.78
2024-01-09T10:30:24.578Z,101380.81
2024-01-09T10:32:54.503Z,101372.31
2024-01-09T10:35:28.490Z,101367.13
2024-01-09T10:37:58.111Z,101365.91
2024-01-09T10:40:30.404Z,101372.19
2024-01-09T10:42:58.943Z,101372.03
2024-01-09T10:45:28.465Z,101365.44
2024-01-09T10:47:56.748Z,101362.47
2024-01-09T10:50:27.152Z,101361.97
2024-01-09T10:52:55.554Z,101353.88
2024-01-09T10:55:26.140Z,101357.47
2024-01-09T10:57:54.402Z,101343.63
2024-01-09T11:00:25.529Z,101348.97
2024-01-09T11:02:56.819Z,101360.78
2024-01-09T11:05:26.720Z,101349.09
2024-01-09T11:07:59.460Z,101347.59
2024-01-09T11:10:29.197Z,101341.81
2024-01-09T11:12:58.822Z,101330.94
2024-01-09T11:15:32.907Z,101333.16
2024-01-09T11:18:07.039Z,101327.88
2024-01-09T11:20:37.580Z,101330.19
2024-01-09T11:23:06.459Z,101318.91
2024-01-09T11:25:36.764Z,101319.41
2024-01-09T11:28:07.696Z,101314.38
2024-01-09T11:30:38.680Z,101318.97
2024-01-09T11:33:34.389Z,101326.59
2024-01-09T11:36:08.858Z,101320.31
2024-01-09T11:38:39.914Z,101309.19
2024-01-09T11:41:11.427Z,101295.34
2024-01-09T11:44:05.234Z,101299.19
2024-01-09T11:46:36.561Z,101291.84
2024-01-09T11:49:05.886Z,101299.34
2024-01-09T11:51:36.050Z,101288.19
2024-01-09T11:54:05.539Z,101296.19
2024-01-09T11:56:33.921Z,101280.94
2024-01-09T11:59:03.172Z,101288.00
2024-01-09T12:01:31.212Z,101285.16
2024-01-09T12:04:00.630Z,101285.00
2024-01-09T12:06:31.073Z,101288.97
2024-01-09T12:09:01.376Z,101278.75
2024-01-09T12:11:30.219Z,101258.69
2024-01-09T12:14:02.192Z,101274.84
2024-01-09T12:16:31.542Z,101269.13
2024-01-09T12:19:01.399Z,101263.47
2024-01-09T12:21:32.922Z,101265.03
2024-01-09T12:24:20.669Z,101260.47
2024-01-09T12:26:53.900Z,101265.69
2024-01-09T12:29:22.528Z,101264.16
2024-01-09T12:31:52.500Z,101259.44
2024-01-09T12:34:20.736Z,101260.44
2024-01-09T12:36:49.804Z,101259.94
2024-01-09T12:39:24.029Z,101261.00
2024-01-09T12:41:54.817Z,101250.09
2024-01-09T12:44:24.746Z,101236.06
2024-01-09T12:46:55.163Z,101246.44
2024-01-09T12:49:24.586Z,101239.44
2024-01-09T12:51:56.773Z,101242.50
2024-01-09T12:54:28.632Z,101233.31
2024-01-09T12:57:00.064Z,101231.38
2024-01-09T12:59:29.065Z,101227.66
2024-01-09T13:01:57.644Z,101229.53
2024-01-09T13:04:29.944Z,101228.16
2024-01-09T13:07:00.993Z,101238.09
2024-01-09T13:09:37.884Z,101227.38
2024-01-09T13:12:10.410Z,101224.63
2024-01-09T13:14:42.864Z,101223.31
2024-01-09T13:17:11.208Z,101218.31
2024-01-09T13:19:39.882Z,101218.66
2024-01-09T13:23:46.098Z,101225.28
2024-01-09T13:24:58.581Z,101223.13
2024-01-09T13:27:26.992Z,101220.00
2024-01-09T13:32:25.865Z,101213.88
2024-01-09T13:34:54.369Z,101211.31
2024-01-09T13:37:22.641Z,101207.59
2024-01-09T13:39:50.593Z,101221.28
2024-01-09T13:42:19.911Z,101219.00
2024-01-09T13:44:48.365Z,101208.94
2024-01-09T13:47:16.682Z,101210.16
2024-01-09T13:52:17.889Z,101221.16
2024-01-09T13:54:46.051Z,101219.03
2024-01-09T13:57:15.354Z,101207.84
2024-01-09T13:59:45.914Z,101209.91
2024-01-09T14:02:15.292Z,101207.94
2024-01-09T14:04:45.302Z,101208.88
2024-01-09T14:07:13.780Z,101202.94
2024-01-09T14:09:43.244Z,101203.31
2024-01-09T14:12:11.531Z,101203.31
2024-01-09T14:14:40.299Z,101203.22
2024-01-09T14:17:10.200Z,101198.13
2024-01-09T14:19:38.974Z,101194.66
2024-01-09T14:22:07.358Z,101216.22
2024-01-09T14:24:35.964Z,101208.41
2024-01-09T14:27:04.410Z,101211.59
2024-01-09T14:29:32.663Z,101200.97
2024-01-09T14:32:01.170Z,101197.88
2024-01-09T14:34:30.468Z,101200.94
2024-01-09T14:36:58.677Z,101188.25
2024-01-09T14:39:27.185Z,101193.88
2024-01-09T14:41:56.019Z,101196.97
2024-01-09T14:44:24.484Z,101181.59
2024-01-09T14:47:00.100Z,101183.41
2024-01-09T14:49:28.386Z,101171.91
2024-01-09T14:51:57.829Z,101184.09
2024-01-09T14:54:28.796Z,101184.22
2024-01-09T14:56:59.178Z,101189.47
2024-01-09T14:59:28.023Z,101186.44
2024-01-09T15:01:56.152Z,101183.25
2024-01-09T15:04:24.450Z,101184.22
2024-01-09T15:06:57.540Z,101191.91
2024-01-09T15:09:31.968Z,101185.16
2024-01-09T15:12:03.131Z,101184.34
2024-01-09T15:14:34.478Z,101195.41
2024-01-09T15:17:03.966Z,101195.41
2024-01-09T15:19:32.240Z,101188.63
2024-01-09T15:22:03.030Z,101199.72
2024-01-09T15:24:34.539Z,101197.19
2024-01-09T15:27:03.002Z,101200.59
2024-01-09T15:29:33.808Z,101208.25
2024-01-09T15:32:05.601Z,101209.94
2024-01-09T15:34:37.779Z,101215.88
2024-01-09T15:37:07.771Z,101212.53
2024-01-09T15:39:39.918Z,101221.84
2024-01-09T15:42:13.036Z,101209.97
2024-01-09T15:44:42.968Z,101214.19
2024-01-09T15:47:15.284Z,101214.19
2024-01-09T15:49:44.834Z,101209.94
2024-01-09T15:52:18.359Z,101215.03
2024-01-09T15:54:53.301Z,101212.44
2024-01-09T15:57:25.451Z,101203.97
2024-01-09T15:59:55.714Z,101205.69
2024-01-09T16:02:24.349Z,101207.34
2024-01-09T16:04:54.074Z,101218.41
2024-01-09T16:07:25.621Z,101211.63
2024-01-09T16:09:57.705Z,101207.34
2024-01-09T16:12:27.966Z,101210.72
2024-01-09T16:14:57.222Z,101216.66
2024-01-09T16:17:26.519Z,101209.03
2024-01-09T16:19:55.219Z,101218.34
2024-01-09T16:22:23.731Z,101224.28
2024-01-09T16:24:52.255Z,101225.97
2024-01-09T16:27:44.876Z,101229.41
2024-01-09T16:30:26.339Z,101233.59
2024-01-09T16:32:54.989Z,101234.44
2024-01-09T16:35:24.936Z,101236.09
2024-01-09T16:37:55.483Z,101239.44
2024-01-09T16:40:26.656Z,101247.91
2024-01-09T16:42:57.702Z,101247.91
2024-01-09T16:45:26.477Z,101246.22
2024-01-09T16:48:01.134Z,101238.59
2024-01-09T16:50:29.696Z,101246.22
2024-01-09T16:53:00.511Z,101247.03
2024-01-09T16:55:30.006Z,101256.34
2024-01-09T16:58:00.593Z,101254.63
2024-01-09T17:00:30.025Z,101253.78
2024-01-09T17:03:05.013Z,101248.72
2024-01-09T17:05:34.634Z,101258.06
2024-01-09T17:08:03.373Z,101241.06
2024-01-09T17:10:33.258Z,101251.25
2024-01-09T17:13:03.735Z,101253.75
2024-01-09T17:15:31.852Z,101250.34
2024-01-09T17:18:02.639Z,101245.22
2024-01-09T17:20:33.459Z,101253.72
2024-01-09T17:23:03.344Z,101249.44
2024-01-09T17:25:32.122Z,101253.66
2024-01-09T17:28:27.259Z,101262.13
2024-01-09T17:30:55.861Z,101262.97
2024-01-09T17:33:25.554Z,101261.28
2024-01-09T17:35:54.249Z,101257.00
2024-01-09T17:38:23.642Z,101264.66
2024-01-09T17:40:52.156Z,101254.47
2024-01-09T17:43:21.761Z,101258.66
2024-01-09T17:45:53.302Z,101266.28
2024-01-09T17:48:22.399Z,101263.72
2024-01-09T17:50:50.826Z,101268.78
2024-01-09T17:53:19.999Z,101262.78
2024-01-09T17:55:51.585Z,101263.63
2024-01-09T17:58:22.092Z,101269.56
2024-01-09T18:00:51.837Z,101273.84
2024-01-09T18:03:20.933Z,101278.88
2024-01-09T18:05:50.808Z,101278.00
2024-01-09T18:08:20.699Z,101272.00
2024-01-09T18:10:50.986Z,101266.06
2024-01-09T18:13:19.860Z,101266.88
2024-01-09T18:15:49.725Z,101278.69
2024-01-09T18:18:19.823Z,101276.13
2024-01-09T18:20:48.494Z,101282.03
2024-01-09T18:23:19.795Z,101276.88
2024-01-09T18:25:48.648Z,101268.38
2024-01-09T18:28:26.509Z,101280.25
2024-01-09T18:30:57.808Z,101292.13
2024-01-09T18:33:27.679Z,101287.06
2024-01-09T18:36:01.795Z,101283.56
2024-01-09T18:38:32.364Z,101281.88
2024-01-09T18:41:02.078Z,101286.91
2024-01-09T18:43:30.294Z,101280.13
2024-01-09T18:46:01.253Z,101279.28
2024-01-09T18:48:34.748Z,101271.66
2024-01-09T18:51:03.803Z,101279.28
2024-01-09T18:53:33.229Z,101295.31
2024-01-09T18:56:04.882Z,101291.03
2024-01-09T18:58:34.072Z,101290.19
2024-01-09T19:01:05.432Z,101289.34
2024-01-09T19:03:36.434Z,101290.19
2024-01-09T19:06:08.056Z,101284.22
2024-01-09T19:08:36.482Z,101285.91
2024-01-09T19:11:05.988Z,101295.16
2024-01-09T19:13:37.723Z,101282.31
2024-01-09T19:16:07.197Z,101278.16
2024-01-09T19:18:40.005Z,101281.47
2024-01-09T19:21:09.512Z,101279.63
2024-01-09T19:23:39.296Z,101285.59
2024-01-09T19:26:11.797Z,101282.19
2024-01-09T19:28:40.119Z,101278.75
2024-01-09T19:31:11.975Z,101285.41
2024-01-09T19:33:45.678Z,101291.47
2024-01-09T19:36:15.160Z,101289.56
2024-01-09T19:38:48.478Z,101292.03
2024-01-09T19:41:20.125Z,101296.31
2024-01-09T19:43:49.188Z,101296.28
2024-01-09T19:46:20.953Z,101289.44
2024-01-09T19:48:59.563Z,101296.22
2024-01-09T19:51:28.954Z,101295.28
2024-01-09T19:53:57.191Z,101301.19
2024-01-09T19:56:28.963Z,101300.38
2024-01-09T19:58:57.455Z,101311.31
2024-01-09T20:01:26.253Z,101303.66
2024-01-09T20:03:58.414Z,101299.31
2024-01-09T20:06:27.168Z,101306.84
2024-01-09T20:08:57.620Z,101312.88
2024-01-09T20:11:30.292Z,101303.47
2024-01-09T20:14:00.974Z,101309.34
2024-01-09T20:16:30.291Z,101304.25
2024-01-09T20:19:01.848Z,101307.59
2024-01-09T20:21:49.523Z,101320.94
2024-01-09T20:24:42.214Z,101317.56
2024-01-09T20:27:10.958Z,101310.59
2024-01-09T20:29:44.811Z,101327.53
2024-01-09T20:32:15.002Z,101311.44
2024-01-09T20:34:44.925Z,101327.50
2024-01-09T20:37:17.979Z,101328.16
2024-01-09T20:39:54.009Z,101333.91
2024-01-09T20:42:22.382Z,101328.84
2024-01-09T20:44:50.855Z,101326.22
2024-01-09T20:47:20.745Z,101320.31
2024-01-09T20:49:52.547Z,101331.34
2024-01-09T20:52:30.095Z,101321.16
2024-01-09T20:54:58.965Z,101321.31
2024-01-09T20:57:55.506Z,101323.75
2024-01-09T21:00:28.378Z,101327.94
2024-01-09T21:02:59.912Z,101323.88
2024-01-09T21:05:36.623Z,101322.06
2024-01-09T21:08:08.806Z,101313.56
2024-01-09T21:10:40.965Z,101323.84
2024-01-09T21:13:17.497Z,101319.59
2024-01-09T21:15:46.448Z,101316.03
2024-01-09T21:18:18.524Z,101319.38
2024-01-09T21:20:48.292Z,101316.88
2024-01-09T21:23:24.520Z,101319.34
2024-01-09T21:26:01.895Z,101318.47
2024-01-09T21:28:30.685Z,101320.19
2024-01-09T21:30:58.736Z,101317.56
2024-01-09T21:33:27.986Z,101313.38
2024-01-09T21:35:59.010Z,101320.88
2024-01-09T21:38:27.307Z,101323.28
2024-01-09T21:40:59.211Z,101309.78
2024-01-09T21:43:28.965Z,101302.13
2024-01-09T21:45:57.194Z,101317.31
2024-01-09T21:48:26.327Z,101320.72
2024-01-09T21:50:55.452Z,101321.53
2024-01-09T21:53:28.061Z,101304.66
2024-01-09T21:55:57.014Z,101297.00
2024-01-09T21:58:28.573Z,101301.22
2024-01-09T22:00:57.512Z,101310.47
2024-01-09T22:03:28.085Z,101307.03
2024-01-09T22:05:58.024Z,101297.69
2024-01-09T22:08:29.533Z,101290.88
2024-01-09T22:11:00.418Z,101297.69
2024-01-09T22:13:30.531Z,101295.84
2024-01-09T22:15:59.007Z,101296.59
2024-01-09T22:18:29.509Z,101294.06
2024-01-09T22:21:01.400Z,101303.44
2024-01-09T22:23:31.107Z,101304.09
2024-01-09T22:25:59.552Z,101292.38
2024-01-09T22:28:27.935Z,101294.06
2024-01-09T22:30:56.358Z,101300.84
2024-01-09T22:33:25.026Z,101297.41
2024-01-09T22:35:57.575Z,101297.34
2024-01-09T22:38:28.249Z,101297.19
2024-01-09T22:40:58.481Z,101294.72
2024-01-09T22:43:26.671Z,101300.63
2024-01-09T22:45:54.997Z,101292.13
2024-01-09T22:48:23.638Z,101304.72
2024-01-09T22:50:54.721Z,101298.84
2024-01-09T22:53:24.174Z,101285.28
2024-01-09T22:55:54.061Z,101305.56
2024-01-09T22:58:23.737Z,101302.81
2024-01-09T23:00:52.375Z,101290.22
2024-01-09T23:03:23.061Z,101285.25
2024-01-09T23:05:51.625Z,101287.66
2024-01-09T23:08:21.342Z,101289.31
2024-01-09T23:10:54.609Z,101291.91
2024-01-09T23:13:25.059Z,101288.50
2024-01-09T23:15:53.417Z,101283.44
2024-01-09T23:18:25.418Z,101285.13
2024-01-09T23:20:55.516Z,101287.72
2024-01-09T23:23:23.800Z,101280.75
2024-01-09T23:25:52.113Z,101273.97
2024-01-09T23:28:20.127Z,101283.34
2024-01-09T23:30:50.517Z,101282.41
2024-01-09T23:33:19.308Z,101274.88
2024-01-09T23:35:47.505Z,101269.88
2024-01-09T23:38:20.469Z,101264.81
2024-01-09T23:40:48.378Z,101256.38
2024-01-09T23:43:16.360Z,101266.56
2024-01-09T23:45:45.608Z,101268.13
2024-01-09T23:48:16.403Z,101259.75
2024-01-09T23:50:44.485Z,101263.09
2024-01-09T23:53:12.808Z,101250.50
2024-01-09T23:55:41.185Z,101251.31
2024-01-09T23:58:10.790Z,101252.94
